Time;durP1;ratioP1;P1;durP2;ratioP2;P2;SDS_P1;SDS_P2;PMS_P1;PMS_P2;Temp;Humidity;BMP_temperature;BMP_pressure;BME280_temperature;BME280_humidity;BME280_pressure;Samples;Min_cycle;Max_cycle;Signal;HPM_P1;HPM_P2
2022/06/22 00:00:33;;;;;;;7.05;5.20;;;;;;;25.68;55.83;94318.94;4915370;29;20191;-79
2022/06/22 00:03:00;;;;;;;10.48;6.00;;;;;;;25.64;55.65;94313.38;4921804;29;20202;-78
2022/06/22 00:05:34;;;;;;;8.40;5.57;;;;;;;25.64;55.70;94310.75;4917022;29;20212;-76
2022/06/22 00:08:06;;;;;;;10.00;5.97;;;;;;;25.62;55.65;94309.44;4926651;29;20210;-77
2022/06/22 00:10:37;;;;;;;6.13;5.53;;;;;;;25.58;55.77;94313.56;4923642;29;20230;-79
2022/06/22 00:13:14;;;;;;;5.97;5.38;;;;;;;25.58;55.87;94324.81;4921295;29;20674;-77
2022/06/22 00:15:47;;;;;;;9.82;5.47;;;;;;;25.55;56.10;94314.81;4927230;29;20218;-77
2022/06/22 00:18:27;;;;;;;9.05;5.40;;;;;;;25.53;55.99;94322.91;4916218;29;20275;-77
2022/06/22 00:20:57;;;;;;;6.85;6.20;;;;;;;25.27;55.92;94286.94;4915715;29;20210;-80
2022/06/22 00:23:35;;;;;;;7.18;5.68;;;;;;;25.51;56.03;94321.56;4918978;29;20599;-78
2022/06/22 00:26:32;;;;;;;10.68;6.45;;;;;;;25.49;56.06;94316.56;4921351;29;20622;-78
2022/06/22 00:29:21;;;;;;;8.88;5.78;;;;;;;25.47;56.42;94312.59;4860652;29;20194;-78
2022/06/22 00:32:14;;;;;;;6.45;5.72;;;;;;;25.38;56.57;94301.75;4863688;29;20233;-78
2022/06/22 00:34:41;;;;;;;9.85;6.25;;;;;;;25.45;56.38;94312.06;4858756;29;20193;-78
2022/06/22 00:37:17;;;;;;;6.40;5.90;;;;;;;25.45;56.30;94318.09;4861698;29;20194;-77
2022/06/22 00:39:45;;;;;;;11.27;6.05;;;;;;;25.36;56.56;94298.56;4866262;29;20200;-78
2022/06/22 00:42:29;;;;;;;9.73;6.03;;;;;;;25.45;56.36;94312.06;4859834;29;20713;-77
2022/06/22 00:45:03;;;;;;;8.82;6.15;;;;;;;25.43;56.67;94314.94;4856883;29;20737;-78
2022/06/22 00:47:33;;;;;;;5.75;5.25;;;;;;;25.43;57.08;94308.88;4865688;29;20298;-78
2022/06/22 00:50:06;;;;;;;10.40;6.20;;;;;;;25.32;57.13;94302.69;4857360;29;20198;-78
2022/06/22 00:52:38;;;;;;;9.27;6.25;;;;;;;25.42;56.73;94323.00;4863314;29;21472;-78
2022/06/22 00:55:18;;;;;;;9.80;6.13;;;;;;;25.41;56.97;94326.66;4862579;29;20720;-78
2022/06/22 00:57:49;;;;;;;8.52;6.63;;;;;;;25.35;57.06;94315.31;4862577;29;20197;-78
2022/06/22 01:00:20;;;;;;;10.10;6.75;;;;;;;25.40;57.03;94319.84;4866952;29;20197;-78
2022/06/22 01:02:54;;;;;;;10.23;6.15;;;;;;;25.39;57.25;94324.28;4861442;29;20207;-77
2022/06/22 01:05:28;;;;;;;7.07;6.38;;;;;;;25.36;57.37;94313.50;4885706;29;20735;-77
2022/06/22 01:08:07;;;;;;;7.53;6.45;;;;;;;25.31;57.42;94308.19;4926072;29;20217;-77
2022/06/22 01:10:41;;;;;;;7.68;6.43;;;;;;;25.39;57.36;94320.84;4922772;29;20207;-78
2022/06/22 01:13:13;;;;;;;7.93;6.65;;;;;;;25.37;57.74;94310.63;4921829;29;20670;-78
2022/06/22 01:15:46;;;;;;;6.88;6.18;;;;;;;25.35;57.37;94309.31;4927848;29;20183;-78
2022/06/22 01:18:16;;;;;;;9.35;5.93;;;;;;;25.30;57.40;94298.72;4925836;29;20192;-78
2022/06/22 01:20:56;;;;;;;11.48;7.13;;;;;;;25.33;57.85;94311.34;4914662;29;20671;-77
2022/06/22 01:23:54;;;;;;;10.02;7.10;;;;;;;25.32;57.89;94317.63;4927261;29;20195;-77
2022/06/22 01:26:38;;;;;;;7.45;6.53;;;;;;;25.24;57.93;94300.47;4918235;29;20203;-78
2022/06/22 01:29:13;;;;;;;7.68;6.22;;;;;;;25.28;58.21;94305.00;4922639;29;20200;-78
2022/06/22 01:31:45;;;;;;;8.63;6.63;;;;;;;25.26;58.03;94295.81;4921506;29;20325;-79
2022/06/22 01:34:16;;;;;;;8.23;6.00;;;;;;;25.21;58.14;94286.03;4916824;29;20198;-77
2022/06/22 01:36:43;;;;;;;8.10;6.28;;;;;;;25.18;58.23;94276.06;4925682;29;20195;-77
2022/06/22 01:39:13;;;;;;;6.68;5.80;;;;;;;25.21;58.03;94280.81;4924193;29;20594;-78
2022/06/22 01:41:45;;;;;;;10.57;6.82;;;;;;;25.17;58.22;94276.28;4916822;29;20191;-78
2022/06/22 01:44:20;;;;;;;7.63;6.25;;;;;;;25.24;58.19;94284.78;4920609;29;20199;-79
2022/06/22 01:47:11;;;;;;;8.43;6.47;;;;;;;25.24;58.31;94282.16;4917605;29;20191;-77
2022/06/22 01:49:45;;;;;;;8.85;6.97;;;;;;;25.21;58.50;94280.81;4919089;29;20624;-77
2022/06/22 01:52:31;;;;;;;8.98;7.10;;;;;;;25.22;58.52;94287.63;4915061;29;20219;-77
2022/06/22 01:55:04;;;;;;;12.43;7.00;;;;;;;25.15;58.20;94268.69;4925870;29;20681;-77
2022/06/22 01:57:40;;;;;;;10.57;6.50;;;;;;;25.14;58.55;94282.81;4923088;29;20589;-77
2022/06/22 02:00:18;;;;;;;8.15;6.90;;;;;;;25.19;58.70;94292.56;4917720;29;20567;-77
2022/06/22 02:02:49;;;;;;;12.05;7.38;;;;;;;25.18;58.77;94298.81;4919596;29;20275;-77
2022/06/22 02:05:22;;;;;;;9.00;6.90;;;;;;;25.15;58.67;94294.84;4916601;29;20194;-77
2022/06/22 02:07:54;;;;;;;10.23;7.05;;;;;;;25.14;59.05;94289.88;4914819;29;20603;-80
2022/06/22 02:10:31;;;;;;;9.98;6.80;;;;;;;25.13;59.32;94296.94;4916487;29;20191;-78
2022/06/22 02:13:07;;;;;;;7.63;6.82;;;;;;;25.11;59.00;94293.75;4922216;29;20670;-77
2022/06/22 02:15:50;;;;;;;9.35;7.20;;;;;;;25.11;58.77;94282.47;4921340;29;20183;-78
2022/06/22 02:18:24;;;;;;;9.80;6.70;;;;;;;25.08;59.08;94280.31;4915282;29;20184;-77
2022/06/22 02:20:53;;;;;;;7.45;6.50;;;;;;;25.08;59.08;94278.50;4918088;29;20678;-77
2022/06/22 02:23:24;;;;;;;13.00;6.38;;;;;;;25.09;59.00;94284.56;4921997;29;20756;-77
2022/06/22 02:26:01;;;;;;;9.10;6.72;;;;;;;25.07;58.86;94281.34;4918578;29;20191;-77
2022/06/22 02:28:29;;;;;;;10.75;7.40;;;;;;;25.03;59.16;94276.56;4919675;29;20207;-77
2022/06/22 02:30:59;;;;;;;10.60;6.88;;;;;;;25.00;59.22;94278.91;4917365;29;20979;-78
2022/06/22 02:33:27;;;;;;;8.07;6.88;;;;;;;24.98;59.34;94288.78;4924736;29;20195;-77
2022/06/22 02:35:56;;;;;;;7.15;6.13;;;;;;;24.96;59.27;94286.41;4925750;29;20191;-77
2022/06/22 02:38:23;;;;;;;9.73;7.10;;;;;;;24.92;59.14;94280.06;4914055;29;20191;-77
2022/06/22 02:46:32;;;;;;;8.05;7.15;;;;;;;24.88;59.34;94276.34;4918183;29;20185;-78
2022/06/22 02:49:03;;;;;;;12.82;7.55;;;;;;;24.83;59.55;94265.78;4919599;29;20182;-78
2022/06/22 02:51:33;;;;;;;9.93;7.40;;;;;;;24.87;59.48;94276.56;4915466;29;20224;-79
2022/06/22 02:54:05;;;;;;;9.63;7.03;;;;;;;24.85;59.59;94279.41;4923030;29;20203;-78
2022/06/22 02:56:37;;;;;;;8.25;7.40;;;;;;;24.85;59.30;94271.56;4915885;29;20208;-78
2022/06/22 02:59:04;;;;;;;8.48;7.53;;;;;;;24.85;59.29;94276.00;4918845;29;20686;-78
2022/06/22 03:01:35;;;;;;;9.95;6.65;;;;;;;24.82;59.50;94274.66;4914638;29;20192;-78
2022/06/22 03:04:08;;;;;;;7.50;6.80;;;;;;;24.84;59.51;94288.31;4925236;29;20280;-78
2022/06/22 03:06:37;;;;;;;8.15;7.30;;;;;;;24.84;59.73;94292.75;4912898;29;20210;-78
2022/06/22 03:09:06;;;;;;;10.77;8.05;;;;;;;24.82;59.74;94292.97;4925374;29;20674;-78
2022/06/22 03:11:34;;;;;;;12.48;7.72;;;;;;;24.79;60.01;94285.59;4924700;29;20222;-78
2022/06/22 03:14:14;;;;;;;11.60;7.35;;;;;;;24.77;59.88;94277.19;4924371;29;20191;-77
2022/06/22 03:16:46;;;;;;;8.52;7.03;;;;;;;24.77;60.04;94283.19;4925507;29;20251;-79
2022/06/22 03:19:17;;;;;;;9.45;7.88;;;;;;;24.70;59.68;94263.47;4925476;29;20233;-78
2022/06/22 03:21:44;;;;;;;11.00;8.07;;;;;;;24.86;59.81;94288.84;4924250;29;20586;-78
2022/06/22 03:24:18;;;;;;;9.13;7.97;;;;;;;24.84;60.00;94290.91;4921625;29;20203;-78
2022/06/22 03:26:50;;;;;;;10.63;7.57;;;;;;;24.92;60.16;94287.13;4923985;29;20193;-78
2022/06/22 03:29:22;;;;;;;9.80;7.70;;;;;;;24.95;60.00;94284.00;4919477;29;20206;-78
2022/06/22 03:31:56;;;;;;;12.40;8.48;;;;;;;24.93;60.04;94279.03;4925082;29;20215;-78
2022/06/22 03:34:28;;;;;;;15.77;8.85;;;;;;;24.89;59.77;94262.22;4916645;29;20195;-78
2022/06/22 03:37:01;;;;;;;8.95;7.40;;;;;;;25.04;59.89;94279.97;4913296;29;20192;-78
2022/06/22 03:39:31;;;;;;;10.98;7.63;;;;;;;25.04;59.87;94277.34;4924139;29;20191;-78
2022/06/22 03:42:03;;;;;;;9.63;7.88;;;;;;;25.09;59.81;94284.56;4924976;29;20188;-78
2022/06/22 03:44:36;;;;;;;12.25;7.82;;;;;;;25.17;60.01;94286.75;4921677;29;20195;-78
2022/06/22 03:47:09;;;;;;;11.68;7.70;;;;;;;25.20;59.56;94294.91;4924579;29;20191;-78
2022/06/22 03:49:42;;;;;;;12.82;8.18;;;;;;;25.21;60.13;94285.25;4922929;29;20188;-78
2022/06/22 03:52:16;;;;;;;12.45;8.52;;;;;;;25.20;59.83;94281.84;4918458;29;20230;-78
2022/06/22 03:54:49;;;;;;;16.13;8.43;;;;;;;25.24;59.87;94295.25;4917572;29;20211;-78
2022/06/22 03:57:26;;;;;;;12.57;8.10;;;;;;;25.24;59.96;94303.88;4922527;29;20251;-78
2022/06/22 03:59:55;;;;;;;12.45;8.30;;;;;;;25.17;60.01;94292.81;4922098;29;20218;-78
2022/06/22 04:02:26;;;;;;;10.07;8.70;;;;;;;25.33;59.84;94313.97;4923667;29;20196;-78
2022/06/22 04:04:57;;;;;;;13.30;9.38;;;;;;;25.40;59.71;94319.84;4922867;29;20188;-77
2022/06/22 04:07:26;;;;;;;12.57;8.85;;;;;;;25.47;59.50;94317.84;4923251;29;20203;-78
2022/06/22 04:09:57;;;;;;;13.18;8.85;;;;;;;25.54;59.46;94313.25;4924035;29;20655;-79
2022/06/22 04:12:31;;;;;;;11.18;8.43;;;;;;;25.63;59.27;94314.41;4925352;29;20215;-77
2022/06/22 04:15:08;;;;;;;10.45;8.77;;;;;;;25.67;59.15;94307.66;4925223;29;20193;-78
2022/06/22 04:17:40;;;;;;;15.45;9.13;;;;;;;25.79;59.20;94307.59;4927003;29;20191;-78
2022/06/22 04:20:17;;;;;;;10.18;8.75;;;;;;;25.89;58.96;94297.25;4920632;29;20351;-78
2022/06/22 04:22:47;;;;;;;9.95;8.60;;;;;;;25.96;58.74;94294.47;4897762;29;20277;-78
2022/06/22 04:25:22;;;;;;;12.55;8.60;;;;;;;26.06;58.39;94293.78;4897680;29;20200;-78
2022/06/22 04:27:52;;;;;;;9.23;8.43;;;;;;;26.14;58.41;94288.91;4898116;29;20207;-78
2022/06/22 04:30:22;;;;;;;10.15;8.98;;;;;;;26.22;58.09;94293.72;4898447;29;20191;-77
2022/06/22 04:33:00;;;;;;;9.77;8.32;;;;;;;26.31;58.01;94290.69;4915747;29;20225;-77
2022/06/22 04:35:34;;;;;;;10.90;8.20;;;;;;;26.40;58.47;94297.88;4924541;29;20230;-79
2022/06/22 04:38:10;;;;;;;14.75;7.95;;;;;;;26.47;58.32;94298.50;4930910;29;21062;-78
2022/06/22 04:40:48;;;;;;;10.32;8.52;;;;;;;26.58;58.25;94301.22;4924148;29;20197;-77
2022/06/22 04:43:17;;;;;;;8.80;7.50;;;;;;;26.68;58.33;94301.31;4924797;29;20606;-79
2022/06/22 04:45:46;;;;;;;16.67;8.35;;;;;;;26.82;58.62;94314.84;4919022;29;20698;-77
2022/06/22 04:48:18;;;;;;;13.45;8.43;;;;;;;26.93;58.33;94317.31;4915015;29;20215;-77
2022/06/22 04:50:48;;;;;;;10.35;8.55;;;;;;;27.05;58.96;94325.03;4916172;29;20660;-76
2022/06/22 04:53:20;;;;;;;11.95;7.85;;;;;;;27.18;60.10;94322.03;4915270;29;20227;-78
2022/06/22 04:55:48;;;;;;;18.75;7.70;;;;;;;27.29;61.24;94316.84;4914850;29;20218;-77
2022/06/22 04:58:36;;;;;;;11.85;8.27;;;;;;;27.44;60.79;94322.22;4915236;29;20200;-76
2022/06/22 05:01:05;;;;;;;13.63;8.40;;;;;;;27.48;60.23;94310.19;4915335;29;20722;-77
2022/06/22 05:03:35;;;;;;;15.30;8.43;;;;;;;27.69;59.94;94321.63;4912888;29;20203;-77
2022/06/22 05:06:07;;;;;;;17.52;8.10;;;;;;;27.79;59.29;94334.84;4928900;29;20199;-78
2022/06/22 05:08:40;;;;;;;17.08;7.78;;;;;;;27.88;59.05;94332.53;4921666;29;20668;-78
2022/06/22 05:11:16;;;;;;;13.70;8.57;;;;;;;28.03;59.54;94327.38;4916170;29;20254;-77
2022/06/22 05:13:46;;;;;;;13.70;7.38;;;;;;;28.24;59.24;94339.56;4914543;29;20587;-77
2022/06/22 05:16:16;;;;;;;16.42;7.45;;;;;;;28.50;59.65;94331.81;4926761;29;20695;-78
2022/06/22 05:18:47;;;;;;;13.60;7.88;;;;;;;28.62;59.16;94313.13;4922294;29;20230;-77
2022/06/22 05:21:19;;;;;;;10.60;7.47;;;;;;;29.14;57.85;94333.25;4916262;29;20204;-76
2022/06/22 05:23:51;;;;;;;9.70;7.43;;;;;;;29.43;57.68;94330.91;4930422;29;20225;-76
2022/06/22 05:26:21;;;;;;;10.90;7.20;;;;;;;29.86;56.38;94344.59;4929891;29;20206;-76
2022/06/22 05:28:53;;;;;;;8.65;7.13;;;;;;;30.23;55.44;94339.78;4930487;29;20254;-76
2022/06/22 05:31:23;;;;;;;14.38;7.10;;;;;;;30.51;54.60;94324.34;4914640;29;20187;-77
2022/06/22 05:33:56;;;;;;;18.30;7.22;;;;;;;30.97;53.63;94329.44;4917399;29;20203;-77
2022/06/22 05:36:26;;;;;;;15.18;6.78;;;;;;;31.33;52.44;94321.25;4920810;29;20660;-77
2022/06/22 05:38:56;;;;;;;10.55;6.75;;;;;;;31.69;51.55;94327.84;4914079;29;20215;-77
2022/06/22 05:41:29;;;;;;;8.55;6.95;;;;;;;32.03;50.80;94326.97;4914870;29;20204;-78
2022/06/22 05:43:58;;;;;;;14.85;6.85;;;;;;;32.33;49.70;94333.00;4914196;29;20283;-76
2022/06/22 05:46:25;;;;;;;8.45;6.70;;;;;;;32.61;48.86;94326.88;4914250;29;20195;-77
2022/06/22 05:48:56;;;;;;;13.20;6.88;;;;;;;32.88;48.23;94344.00;4915504;29;20184;-77
2022/06/22 05:51:33;;;;;;;7.80;7.03;;;;;;;33.14;47.87;94355.81;4915313;29;20183;-77
2022/06/22 05:54:05;;;;;;;7.97;6.28;;;;;;;33.40;47.35;94350.16;4913718;29;20200;-77
2022/06/22 05:56:39;;;;;;;15.73;6.93;;;;;;;33.61;46.78;94348.78;4914373;29;20207;-77
2022/06/22 05:59:14;;;;;;;9.77;6.68;;;;;;;33.82;46.46;94349.22;4917388;29;20192;-77
2022/06/22 06:01:49;;;;;;;12.73;6.82;;;;;;;34.03;45.97;94359.50;4914812;29;20198;-79
2022/06/22 06:04:26;;;;;;;12.43;6.65;;;;;;;34.14;45.56;94339.63;4915945;29;20258;-77
2022/06/22 06:06:56;;;;;;;8.40;6.45;;;;;;;34.38;44.93;94350.84;4917996;29;20590;-77
2022/06/22 06:09:25;;;;;;;7.95;6.38;;;;;;;34.54;44.51;94351.34;4913774;29;20196;-77
2022/06/22 06:12:00;;;;;;;8.90;6.22;;;;;;;34.70;44.37;94346.53;4918366;29;20203;-78
2022/06/22 06:14:30;;;;;;;8.48;6.32;;;;;;;34.83;43.90;94345.72;4918245;29;20717;-77
2022/06/22 06:17:02;;;;;;;7.70;6.25;;;;;;;34.91;43.69;94337.03;4926806;29;20207;-77
2022/06/22 06:19:35;;;;;;;12.05;6.30;;;;;;;35.10;43.33;94355.50;4919344;29;20234;-78
2022/06/22 06:22:04;;;;;;;11.18;6.03;;;;;;;35.23;43.23;94343.25;4919503;29;20214;-78
2022/06/22 06:24:38;;;;;;;8.93;6.03;;;;;;;35.36;43.00;94344.28;4918465;29;20670;-77
2022/06/22 06:30:00;;;;;;;9.27;6.80;;;;;;;35.60;43.19;94346.66;4924178;29;20693;-76
2022/06/22 06:32:35;;;;;;;10.05;6.25;;;;;;;35.71;42.80;94341.88;4924741;29;20219;-76
2022/06/22 06:35:13;;;;;;;8.85;6.30;;;;;;;35.80;42.37;94351.50;4919566;29;20198;-77
2022/06/22 06:37:47;;;;;;;6.57;5.97;;;;;;;35.88;42.35;94344.63;4915898;29;20211;-77
2022/06/22 06:40:21;;;;;;;7.35;6.28;;;;;;;35.98;42.72;94346.28;4919462;29;20218;-78
2022/06/22 06:43:05;;;;;;;8.73;6.40;;;;;;;36.06;42.65;94343.66;4922181;29;20199;-77
2022/06/22 06:45:34;;;;;;;10.57;5.97;;;;;;;36.14;42.32;94337.59;4918034;29;20202;-77
2022/06/22 06:48:07;;;;;;;9.93;6.80;;;;;;;36.20;42.26;94348.09;4916337;29;20203;-78
2022/06/22 06:50:40;;;;;;;10.63;6.80;;;;;;;36.29;42.00;94343.59;4912965;29;20644;-77
2022/06/22 06:53:22;;;;;;;7.22;6.53;;;;;;;36.36;42.04;94344.72;4912914;29;20316;-78
2022/06/22 06:55:53;;;;;;;7.00;6.30;;;;;;;36.38;42.20;94333.75;4918450;29;20196;-78
2022/06/22 06:58:27;;;;;;;8.52;6.55;;;;;;;36.47;42.20;94337.25;4929980;29;20214;-78
2022/06/22 07:00:54;;;;;;;7.47;6.55;;;;;;;36.51;42.21;94332.09;4923016;29;20199;-77
2022/06/22 07:03:27;;;;;;;10.95;6.50;;;;;;;36.57;41.95;94341.50;4918886;29;20212;-77
2022/06/22 07:05:55;;;;;;;7.85;6.15;;;;;;;36.58;41.69;94332.41;4915912;29;20190;-77
2022/06/22 07:08:29;;;;;;;10.70;6.60;;;;;;;36.64;41.62;94331.94;4925194;29;20204;-77
2022/06/22 07:11:01;;;;;;;12.05;6.80;;;;;;;36.65;41.48;94322.06;4915962;29;20195;-77
2022/06/22 07:13:32;;;;;;;10.13;7.07;;;;;;;36.64;41.43;94323.97;4919488;29;20891;-77
2022/06/22 07:16:04;;;;;;;8.18;6.53;;;;;;;36.66;41.49;94324.44;4918861;29;20203;-77
2022/06/22 07:18:36;;;;;;;7.82;6.25;;;;;;;36.67;41.32;94325.22;4928619;29;20223;-77
2022/06/22 07:21:12;;;;;;;8.00;6.68;;;;;;;36.60;41.22;94320.34;4926629;29;20202;-78
2022/06/22 07:23:44;;;;;;;7.88;6.95;;;;;;;36.50;41.14;94323.31;4916745;29;20191;-78
2022/06/22 07:26:19;;;;;;;7.97;6.72;;;;;;;36.39;41.38;94330.75;4917811;29;20203;-76
2022/06/22 07:28:54;;;;;;;11.18;6.40;;;;;;;36.34;41.51;94320.25;4914074;29;20599;-77
2022/06/22 07:31:26;;;;;;;12.05;7.70;;;;;;;36.30;41.58;94321.97;4913064;29;20207;-79
2022/06/22 07:33:59;;;;;;;12.23;7.25;;;;;;;36.26;41.63;94322.88;4915567;29;20629;-75
2022/06/22 07:36:32;;;;;;;12.65;8.10;;;;;;;36.23;41.79;94321.66;4919989;29;20296;-75
2022/06/22 07:39:07;;;;;;;11.13;8.45;;;;;;;36.21;41.58;94312.38;4916567;29;20203;-76
2022/06/22 07:41:36;;;;;;;13.80;9.93;;;;;;;36.19;41.60;94320.69;4916348;29;20198;-76
2022/06/22 07:44:07;;;;;;;10.20;9.20;;;;;;;36.08;41.76;94314.84;4926450;29;20203;-75
2022/06/22 07:46:41;;;;;;;11.90;9.20;;;;;;;36.00;41.87;94325.44;4933374;29;20195;-76
2022/06/22 07:49:12;;;;;;;12.70;8.43;;;;;;;35.93;41.77;94313.34;4929064;29;20195;-76
2022/06/22 07:51:47;;;;;;;9.75;8.65;;;;;;;35.81;42.14;94315.81;4919872;29;20196;-75
2022/06/22 07:54:18;;;;;;;11.73;8.60;;;;;;;35.74;42.27;94322.63;4919556;29;20225;-76
2022/06/22 07:56:58;;;;;;;13.10;9.45;;;;;;;35.65;42.36;94314.63;4913296;29;20203;-78
2022/06/22 07:59:28;;;;;;;12.00;9.90;;;;;;;35.56;42.44;94324.41;4916424;29;20579;-77
2022/06/22 08:02:01;;;;;;;12.45;9.57;;;;;;;35.48;42.65;94317.97;4916399;29;20218;-77
2022/06/22 08:04:35;;;;;;;12.43;10.32;;;;;;;35.37;42.85;94324.59;4932453;29;20199;-78
2022/06/22 08:07:08;;;;;;;11.27;10.20;;;;;;;35.33;43.00;94329.72;4915587;29;20210;-77
2022/06/22 08:09:40;;;;;;;12.23;10.68;;;;;;;35.25;42.99;94335.00;4921065;29;20670;-77
2022/06/22 08:12:14;;;;;;;12.90;10.82;;;;;;;35.07;42.92;94328.75;4926704;29;20218;-77
2022/06/22 08:14:43;;;;;;;11.48;10.38;;;;;;;35.11;42.95;94335.03;4924298;29;20206;-77
2022/06/22 08:17:16;;;;;;;11.93;10.63;;;;;;;35.04;42.81;94340.75;4920538;29;20192;-79
2022/06/22 08:19:44;;;;;;;12.65;10.65;;;;;;;34.92;43.26;94341.25;4921212;29;20231;-78
2022/06/22 08:22:13;;;;;;;14.93;11.07;;;;;;;34.85;43.30;94346.22;4924299;29;20207;-78
2022/06/22 08:24:46;;;;;;;15.68;10.63;;;;;;;34.80;43.41;94342.84;4925816;29;20191;-77
2022/06/22 08:27:17;;;;;;;11.73;9.63;;;;;;;34.71;43.31;94334.81;4926970;29;20196;-78
2022/06/22 08:29:45;;;;;;;16.05;10.27;;;;;;;34.72;43.65;94336.41;4922239;29;20598;-78
2022/06/22 08:32:19;;;;;;;11.80;10.70;;;;;;;34.68;43.62;94336.19;4923967;29;20298;-79
2022/06/22 08:34:52;;;;;;;11.90;10.70;;;;;;;34.65;43.46;94341.31;4920365;29;20192;-78
2022/06/22 08:37:26;;;;;;;12.20;10.90;;;;;;;34.61;43.69;94330.50;4923053;29;20205;-78
2022/06/22 08:39:57;;;;;;;13.10;10.68;;;;;;;34.57;43.60;94329.53;4927030;29;20259;-78
2022/06/22 08:42:35;;;;;;;12.18;10.45;;;;;;;34.53;44.00;94327.75;4928559;29;20203;-77
2022/06/22 08:45:19;;;;;;;11.63;10.43;;;;;;;34.47;43.86;94342.19;4923703;29;20211;-77
2022/06/22 08:48:03;;;;;;;13.23;10.65;;;;;;;34.40;43.65;94329.31;4911341;29;20237;-77
2022/06/22 08:50:46;;;;;;;11.10;9.40;;;;;;;34.36;43.96;94323.78;4915506;29;20195;-78
2022/06/22 08:53:29;;;;;;;11.30;10.02;;;;;;;34.31;43.72;94323.91;4919565;29;20227;-77
2022/06/22 08:56:12;;;;;;;11.05;9.82;;;;;;;34.29;43.82;94320.00;4917746;29;20671;-77
2022/06/22 08:58:56;;;;;;;11.68;10.15;;;;;;;34.25;43.90;94313.69;4917591;29;20663;-76
2022/06/22 09:01:35;;;;;;;13.77;10.43;;;;;;;34.19;43.96;94320.97;4915155;29;20223;-77
2022/06/22 09:04:29;;;;;;;11.52;10.23;;;;;;;34.07;43.80;94299.41;4915067;29;20294;-77
2022/06/22 09:07:25;;;;;;;11.18;9.60;;;;;;;34.10;43.86;94314.75;4919764;29;20205;-77
2022/06/22 09:10:33;;;;;;;11.23;10.23;;;;;;;34.04;43.99;94298.16;4914529;29;20207;-78
2022/06/22 09:13:26;;;;;;;12.40;10.23;;;;;;;33.99;44.08;94311.53;4839215;29;20222;-77
2022/06/22 09:16:04;;;;;;;10.98;8.88;;;;;;;33.92;44.18;94301.25;4845682;29;20686;-76
2022/06/22 09:19:01;;;;;;;13.40;10.57;;;;;;;33.86;44.30;94305.09;4842531;29;20313;-77
2022/06/22 09:21:45;;;;;;;9.98;8.98;;;;;;;33.83;44.63;94310.97;4850534;29;20321;-77
2022/06/22 09:24:20;;;;;;;12.50;9.07;;;;;;;33.76;44.43;94299.19;4849212;29;20207;-78
2022/06/22 09:26:59;;;;;;;12.85;9.27;;;;;;;33.75;44.16;94303.69;4848640;29;20194;-77
2022/06/22 09:29:41;;;;;;;10.02;9.02;;;;;;;33.70;44.39;94295.84;4838831;29;20206;-76
2022/06/22 09:32:44;;;;;;;9.95;8.95;;;;;;;33.66;44.19;94287.66;4843333;29;20590;-77
2022/06/22 09:35:50;;;;;;;12.38;9.25;;;;;;;33.61;44.29;94277.16;4852239;29;20716;-75
2022/06/22 09:38:43;;;;;;;9.70;8.45;;;;;;;33.61;44.27;94274.50;4766741;30;20205;-77
2022/06/22 09:41:21;;;;;;;10.60;8.82;;;;;;;33.63;44.19;94275.00;4771045;30;20197;-79
2022/06/22 09:44:19;;;;;;;12.05;8.85;;;;;;;33.62;44.18;94265.47;4769013;29;20204;-79
2022/06/22 09:47:19;;;;;;;10.82;8.38;;;;;;;33.52;44.40;94259.56;4774375;30;20586;-80
2022/06/22 09:50:21;;;;;;;11.52;8.25;;;;;;;33.43;44.20;94270.03;4800256;29;20241;-77
2022/06/22 09:53:22;;;;;;;8.88;7.82;;;;;;;33.42;44.48;94284.34;4778862;29;20216;-77
2022/06/22 09:56:22;;;;;;;11.00;7.93;;;;;;;33.40;44.18;94278.56;4774089;29;20205;-75
2022/06/22 10:02:18;;;;;;;9.43;8.32;;;;;;;33.29;44.67;94271.84;4764217;30;20761;-76
2022/06/22 10:05:16;;;;;;;10.10;8.60;;;;;;;33.23;44.97;94281.75;4777221;30;20257;-76
2022/06/22 10:07:54;;;;;;;9.77;8.43;;;;;;;33.16;44.97;94276.84;4707755;30;20238;-77
2022/06/22 10:10:36;;;;;;;13.82;7.72;;;;;;;33.07;45.18;94280.41;4695796;30;20218;-76
2022/06/22 10:13:36;;;;;;;8.85;7.53;;;;;;;33.12;45.29;94298.91;4696411;30;20238;-77
2022/06/22 10:16:34;;;;;;;10.00;8.23;;;;;;;33.05;45.41;94301.13;4737780;30;20210;-78
2022/06/22 10:19:17;;;;;;;14.57;8.35;;;;;;;33.00;45.09;94306.50;4741050;30;20483;-76
2022/06/22 10:21:58;;;;;;;9.13;7.38;;;;;;;32.99;45.65;94310.22;4742738;30;20307;-76
2022/06/22 10:24:40;;;;;;;10.85;8.10;;;;;;;32.98;45.65;94306.78;4738376;30;20247;-78
2022/06/22 10:27:27;;;;;;;8.50;7.70;;;;;;;32.89;45.54;94300.53;4734978;30;20305;-76
2022/06/22 10:30:12;;;;;;;13.55;7.55;;;;;;;32.91;45.44;94309.81;4781401;29;20207;-77
2022/06/22 10:32:55;;;;;;;8.05;7.15;;;;;;;32.87;45.94;94302.69;4818856;29;20438;-77
2022/06/22 10:35:47;;;;;;;9.05;7.60;;;;;;;32.79;46.19;94298.03;4820644;29;20673;-77
2022/06/22 10:38:47;;;;;;;13.20;8.15;;;;;;;32.71;45.90;94300.25;4819859;29;20199;-77
2022/06/22 10:47:29;;;;;;;9.30;7.90;;;;;;;32.82;45.96;94292.94;4919748;29;20250;-78
2022/06/22 10:50:12;;;;;;;10.00;6.88;;;;;;;32.92;46.09;94306.06;4914336;29;20274;-79
2022/06/22 10:53:29;;;;;;;12.13;7.30;;;;;;;33.00;45.45;94293.25;4924445;29;20286;-80
2022/06/22 10:56:20;;;;;;;12.80;8.25;;;;;;;33.07;45.42;94301.59;4802649;29;20211;-80
2022/06/22 10:59:12;;;;;;;9.35;7.40;;;;;;;33.17;45.25;94302.25;4813805;29;20225;-80
2022/06/22 11:01:55;;;;;;;8.35;7.05;;;;;;;33.23;45.34;94295.00;4813087;29;20294;-78
2022/06/22 11:05:00;;;;;;;8.55;7.20;;;;;;;33.26;45.01;94291.78;4809063;29;20276;-80
2022/06/22 11:08:03;;;;;;;14.02;7.60;;;;;;;33.34;45.18;94287.69;4806732;29;20768;-80
2022/06/22 11:11:24;;;;;;;6.90;6.15;;;;;;;33.43;45.13;94294.69;4774353;30;20289;-85
2022/06/22 11:14:51;;;;;;;8.02;7.32;;;;;;;32.87;44.86;94188.78;4774992;30;20224;-82
2022/06/22 11:17:44;;;;;;;8.65;7.60;;;;;;;33.01;44.79;94208.16;4658188;30;20229;-81
2022/06/22 11:20:37;;;;;;;7.55;6.75;;;;;;;33.64;44.44;94299.66;4749275;30;20233;-81
2022/06/22 11:23:13;;;;;;;8.60;7.65;;;;;;;33.76;44.13;94313.22;4753945;30;20233;-81
2022/06/22 11:32:13;;;;;;;8.90;7.97;;;;;;;33.81;44.14;94318.47;4839009;29;20818;-80
2022/06/22 11:34:54;;;;;;;8.20;7.47;;;;;;;33.64;44.24;94292.50;4896880;29;20235;-78
2022/06/22 11:37:37;;;;;;;9.43;8.20;;;;;;;33.68;44.34;94293.50;4907206;29;20344;-77
2022/06/22 11:40:31;;;;;;;7.60;6.53;;;;;;;33.75;44.30;94311.66;4909412;29;20199;-78
2022/06/22 11:43:15;;;;;;;10.98;7.97;;;;;;;33.75;44.13;94310.88;4894549;29;21011;-79
2022/06/22 11:45:54;;;;;;;9.57;7.65;;;;;;;33.77;44.13;94306.06;4904681;29;20716;-78
2022/06/22 11:48:47;;;;;;;9.98;6.93;;;;;;;33.76;44.29;94307.13;4920680;29;20683;-79
2022/06/22 11:51:29;;;;;;;8.55;7.20;;;;;;;33.81;44.26;94307.84;4920077;29;20216;-78
2022/06/22 11:54:25;;;;;;;9.07;7.60;;;;;;;33.86;44.05;94302.44;4922765;29;20318;-78
2022/06/22 11:57:05;;;;;;;12.23;7.78;;;;;;;33.86;44.13;94297.13;4930814;29;20292;-80
2022/06/22 11:59:59;;;;;;;13.48;8.07;;;;;;;33.89;44.35;94304.50;4926543;29;20195;-79
2022/06/22 12:03:04;;;;;;;8.48;7.53;;;;;;;33.89;43.99;94295.75;4917497;29;20254;-81
2022/06/22 12:06:48;;;;;;;12.75;7.85;;;;;;;33.91;44.28;94306.88;4932002;29;20195;-82
2022/06/22 12:13:06;;;;;;;8.27;7.47;;;;;;;33.66;44.51;94258.50;4797707;29;20644;-78
2022/06/22 12:15:44;;;;;;;10.07;7.68;;;;;;;33.89;44.14;94293.09;4803271;29;20723;-79
2022/06/22 12:18:39;;;;;;;8.35;7.47;;;;;;;33.92;44.21;94301.25;4803378;29;20564;-79
2022/06/22 12:21:32;;;;;;;9.95;7.70;;;;;;;33.78;44.18;94276.59;4804096;29;20204;-79
2022/06/22 12:24:07;;;;;;;9.18;8.15;;;;;;;33.83;44.51;94288.97;4801379;29;20295;-78
2022/06/22 12:26:48;;;;;;;10.30;7.68;;;;;;;33.77;44.44;94306.06;4803712;29;20303;-78
2022/06/22 12:29:51;;;;;;;9.77;7.15;;;;;;;33.70;44.76;94307.22;4803083;29;20207;-78
2022/06/22 12:32:22;;;;;;;11.20;7.43;;;;;;;33.61;44.69;94297.59;4802603;29;20203;-80
2022/06/22 12:35:06;;;;;;;8.52;7.47;;;;;;;33.52;44.58;94296.69;4802900;29;20356;-79
2022/06/22 12:37:41;;;;;;;8.65;7.85;;;;;;;33.41;45.05;94302.13;4802616;29;20294;-77
2022/06/22 12:40:19;;;;;;;11.75;7.95;;;;;;;33.39;45.02;94314.09;4802829;29;20741;-79
2022/06/22 12:43:06;;;;;;;12.25;8.45;;;;;;;33.32;44.96;94295.91;4816964;29;20669;-78
2022/06/22 12:45:50;;;;;;;10.27;7.40;;;;;;;33.11;45.04;94276.09;4856234;29;20209;-79